Time;durP1;ratioP1;P1;durP2;ratioP2;P2;SDS_P1;SDS_P2;PMS_P1;PMS_P2;Temp;Humidity;BMP_temperature;BMP_pressure;BME280_temperature;BME280_humidity;BME280_pressure;Samples;Min_cycle;Max_cycle;Signal;HPM_P1;HPM_P2
2022/07/24 00:02:18;;;;;;;3.15;1.73;;;16.50;99.90;;;;;;5045608;28;20119;-74
2022/07/24 00:04:46;;;;;;;2.50;1.75;;;16.50;99.90;;;;;;5046137;28;20053;-74
2022/07/24 00:07:12;;;;;;;3.50;1.50;;;16.50;99.90;;;;;;5051423;28;20068;-74
2022/07/24 00:09:38;;;;;;;2.95;1.80;;;16.50;99.90;;;;;;5042528;28;20052;-73
2022/07/24 00:12:04;;;;;;;2.15;1.70;;;17.10;99.90;;;;;;5048068;28;20033;-73
2022/07/24 00:14:30;;;;;;;4.95;1.67;;;16.40;99.90;;;;;;5049607;28;20101;-72
2022/07/24 00:16:56;;;;;;;1.98;1.60;;;16.40;99.90;;;;;;5041726;28;20481;-74
2022/07/24 00:19:21;;;;;;;3.17;1.67;;;16.80;99.90;;;;;;5038282;28;20157;-73
2022/07/24 00:21:47;;;;;;;2.30;1.60;;;16.40;99.90;;;;;;5044943;28;20454;-74
2022/07/24 00:24:13;;;;;;;4.75;1.88;;;17.10;99.90;;;;;;5043361;28;20492;-73
2022/07/24 00:26:38;;;;;;;3.28;1.77;;;16.30;99.90;;;;;;5031218;28;20033;-74
2022/07/24 00:29:04;;;;;;;2.08;1.77;;;16.30;99.90;;;;;;5041095;28;20049;-74
2022/07/24 00:31:30;;;;;;;5.07;1.98;;;16.20;99.90;;;;;;5046901;28;20045;-75
2022/07/24 00:33:56;;;;;;;4.22;1.63;;;16.60;99.90;;;;;;5041336;28;20038;-73
2022/07/24 00:36:21;;;;;;;3.70;1.52;;;16.70;99.90;;;;;;5026455;28;20048;-73
2022/07/24 00:38:47;;;;;;;3.95;2.00;;;16.40;99.90;;;;;;5030039;28;20504;-74
2022/07/24 00:41:13;;;;;;;3.28;1.92;;;16.20;99.90;;;;;;5040204;28;20034;-73
2022/07/24 00:43:59;;;;;;;2.17;1.80;;;16.90;99.90;;;;;;5009742;28;20055;-73
2022/07/24 00:46:25;;;;;;;1.70;1.60;;;16.70;99.90;;;;;;5047334;28;20045;-73
2022/07/24 00:48:55;;;;;;;3.03;2.13;;;16.20;99.90;;;;;;5037595;28;20137;-73
2022/07/24 00:51:23;;;;;;;4.18;2.05;;;16.10;99.90;;;;;;5049377;28;20048;-73
2022/07/24 00:53:52;;;;;;;4.32;2.13;;;16.10;99.90;;;;;;5045652;28;20049;-74
2022/07/24 00:56:18;;;;;;;2.95;1.75;;;16.20;99.90;;;;;;5044929;28;20044;-74
2022/07/24 00:58:46;;;;;;;1.85;1.70;;;16.10;99.90;;;;;;5041421;28;20064;-74
2022/07/24 01:01:11;;;;;;;2.83;1.73;;;16.10;99.90;;;;;;5044664;28;20052;-72
2022/07/24 01:03:37;;;;;;;1.80;1.70;;;16.80;99.90;;;;;;5044189;28;20033;-73
2022/07/24 01:06:03;;;;;;;3.10;2.10;;;16.10;99.90;;;;;;5048412;28;20044;-73
2022/07/24 01:08:28;;;;;;;2.17;1.63;;;16.10;99.90;;;;;;5028893;28;20476;-72
2022/07/24 01:10:54;;;;;;;1.70;1.60;;;16.20;99.90;;;;;;5043975;28;20033;-73
2022/07/24 01:13:21;;;;;;;2.45;2.17;;;16.10;99.90;;;;;;5042289;28;20453;-73
2022/07/24 01:15:47;;;;;;;2.90;2.40;;;16.10;99.90;;;;;;5046698;28;20041;-73
2022/07/24 01:18:17;;;;;;;4.22;1.85;;;16.10;99.90;;;;;;5042401;28;20041;-74
2022/07/24 01:20:46;;;;;;;3.92;2.08;;;16.10;99.90;;;;;;5045578;28;20388;-73
2022/07/24 01:23:13;;;;;;;2.47;2.28;;;16.10;99.90;;;;;;5026303;28;20098;-72
2022/07/24 01:25:42;;;;;;;1.92;1.60;;;16.10;99.90;;;;;;5042568;28;20045;-74
2022/07/24 01:28:08;;;;;;;2.38;2.10;;;16.10;99.90;;;;;;5042445;28;20037;-73
2022/07/24 01:30:34;;;;;;;5.18;2.20;;;16.40;99.90;;;;;;5038661;28;20052;-74
2022/07/24 01:33:00;;;;;;;4.97;2.30;;;16.10;99.90;;;;;;5044770;28;20043;-74
2022/07/24 01:35:26;;;;;;;2.28;2.03;;;16.10;99.90;;;;;;5038433;28;20048;-74
2022/07/24 01:37:53;;;;;;;2.83;2.47;;;16.10;99.90;;;;;;5046524;28;20048;-75
2022/07/24 01:40:20;;;;;;;2.17;2.00;;;16.10;99.90;;;;;;5046292;28;20499;-74
2022/07/24 01:42:46;;;;;;;2.83;2.30;;;16.60;99.90;;;;;;5048749;28;20101;-74
2022/07/24 01:45:12;;;;;;;3.25;2.95;;;16.00;99.90;;;;;;5030635;28;20538;-74
2022/07/24 01:47:38;;;;;;;3.55;2.72;;;16.00;99.90;;;;;;5048535;28;20127;-74
2022/07/24 01:50:04;;;;;;;3.75;2.90;;;16.00;99.90;;;;;;5048145;28;20487;-73
2022/07/24 01:52:29;;;;;;;3.05;2.53;;;16.00;99.90;;;;;;5048807;28;20086;-75
2022/07/24 01:54:55;;;;;;;2.60;2.35;;;16.00;99.90;;;;;;5017942;28;20131;-74
2022/07/24 01:57:21;;;;;;;3.03;2.83;;;16.10;99.90;;;;;;5046688;28;20053;-74
2022/07/24 01:59:47;;;;;;;3.15;2.65;;;16.10;99.90;;;;;;5042313;28;20116;-74
2022/07/24 02:02:13;;;;;;;3.38;2.83;;;16.10;99.90;;;;;;5047631;28;20155;-74
2022/07/24 02:04:41;;;;;;;2.67;2.47;;;16.10;99.90;;;;;;5031140;28;20037;-74
2022/07/24 02:07:07;;;;;;;4.80;3.10;;;16.10;99.90;;;;;;5044316;28;20037;-74
2022/07/24 02:09:32;;;;;;;3.05;2.40;;;16.10;99.90;;;;;;5044655;28;20495;-74
2022/07/24 02:11:58;;;;;;;3.65;2.72;;;16.10;99.90;;;;;;5041109;28;20036;-74
2022/07/24 02:14:27;;;;;;;3.38;3.05;;;16.10;99.90;;;;;;5042290;28;20041;-74
2022/07/24 02:16:52;;;;;;;3.08;2.88;;;16.10;99.90;;;;;;5037933;28;20400;-74
2022/07/24 02:19:18;;;;;;;2.97;2.72;;;16.10;99.90;;;;;;5048260;28;20043;-73
2022/07/24 02:21:47;;;;;;;3.13;2.85;;;16.10;99.90;;;;;;5042118;28;20436;-74
2022/07/24 02:24:16;;;;;;;5.65;3.47;;;16.00;99.90;;;;;;5048758;28;20424;-74
2022/07/24 02:26:41;;;;;;;4.85;3.60;;;16.10;99.90;;;;;;5046245;28;20072;-74
2022/07/24 02:29:07;;;;;;;3.40;3.10;;;16.10;99.90;;;;;;5045568;28;20072;-74
2022/07/24 02:31:32;;;;;;;4.68;4.28;;;16.10;99.90;;;;;;5047926;28;20049;-74
2022/07/24 02:33:58;;;;;;;4.45;4.05;;;16.10;99.90;;;;;;5026004;28;20037;-74
2022/07/24 02:36:24;;;;;;;4.50;4.05;;;16.10;99.90;;;;;;5048345;28;20099;-74
2022/07/24 02:38:51;;;;;;;6.72;3.90;;;16.70;99.90;;;;;;5025571;28;20558;-74
2022/07/24 02:41:17;;;;;;;5.43;4.25;;;16.00;99.90;;;;;;5042096;28;20056;-74
2022/07/24 02:43:42;;;;;;;4.93;4.40;;;16.00;99.90;;;;;;5044841;28;20036;-73
2022/07/24 02:46:08;;;;;;;4.50;3.95;;;15.90;99.90;;;;;;5043787;28;20053;-73
2022/07/24 02:48:34;;;;;;;4.88;4.38;;;15.90;99.90;;;;;;5043463;28;20400;-73
2022/07/24 02:51:00;;;;;;;4.53;4.13;;;16.30;99.90;;;;;;5040257;28;20442;-74
2022/07/24 02:53:25;;;;;;;5.22;4.82;;;16.60;99.90;;;;;;5045530;28;20166;-73
2022/07/24 02:55:54;;;;;;;5.25;4.50;;;15.90;99.90;;;;;;5022046;28;20053;-73
2022/07/24 02:58:22;;;;;;;5.63;4.95;;;16.00;99.90;;;;;;5046831;28;20083;-73
2022/07/24 03:00:48;;;;;;;6.20;4.43;;;16.00;99.90;;;;;;5040449;28;20060;-73
2022/07/24 03:03:14;;;;;;;5.80;4.80;;;17.10;99.90;;;;;;5044973;28;20049;-73
2022/07/24 03:05:40;;;;;;;4.95;4.40;;;15.90;99.90;;;;;;5029422;28;20080;-73
2022/07/24 03:08:05;;;;;;;5.25;4.75;;;16.00;99.90;;;;;;5040524;28;20040;-73
2022/07/24 03:10:31;;;;;;;5.10;4.60;;;15.90;99.90;;;;;;5023814;28;20066;-73
2022/07/24 03:12:57;;;;;;;5.13;4.63;;;15.90;99.90;;;;;;5025166;28;20120;-74
2022/07/24 03:15:22;;;;;;;7.80;6.13;;;15.90;99.90;;;;;;5043590;28;20075;-73
2022/07/24 03:17:53;;;;;;;5.85;5.35;;;15.90;99.90;;;;;;5026630;28;20045;-73
2022/07/24 03:20:20;;;;;;;5.43;4.90;;;15.90;99.90;;;;;;5023962;28;20531;-73
2022/07/24 03:22:46;;;;;;;5.53;5.03;;;16.60;99.90;;;;;;5036801;28;20052;-73
2022/07/24 03:25:12;;;;;;;6.70;5.28;;;15.90;99.90;;;;;;5040666;28;20504;-72
2022/07/24 03:27:38;;;;;;;6.72;4.88;;;15.90;99.90;;;;;;5045098;28;20124;-73
2022/07/24 03:30:08;;;;;;;5.47;4.97;;;15.90;99.90;;;;;;5041255;28;20591;-73
2022/07/24 03:32:34;;;;;;;5.75;5.18;;;15.90;99.90;;;;;;5038005;28;20037;-74
2022/07/24 03:35:00;;;;;;;5.35;4.85;;;15.90;99.90;;;;;;5037127;28;20082;-73
2022/07/24 03:37:26;;;;;;;5.72;5.20;;;15.90;99.90;;;;;;5049042;28;20041;-74
2022/07/24 03:39:52;;;;;;;7.25;6.07;;;15.90;99.90;;;;;;5045486;28;20072;-74
2022/07/24 03:42:17;;;;;;;6.03;5.50;;;15.90;99.90;;;;;;5041382;28;20041;-74
2022/07/24 03:44:43;;;;;;;6.43;5.75;;;15.90;99.90;;;;;;5042334;28;20068;-73
2022/07/24 03:47:09;;;;;;;6.20;5.70;;;15.90;99.90;;;;;;5038297;28;20033;-74
2022/07/24 03:49:34;;;;;;;6.40;5.85;;;16.40;99.90;;;;;;5038584;28;20397;-75
2022/07/24 03:52:00;;;;;;;6.65;6.00;;;16.40;99.90;;;;;;5044808;28;20038;-74
2022/07/24 03:54:25;;;;;;;7.18;5.50;;;15.90;99.90;;;;;;5043177;28;20033;-74
2022/07/24 03:56:52;;;;;;;6.03;5.43;;;15.90;99.90;;;;;;5045821;28;20120;-74
2022/07/24 03:59:18;;;;;;;7.55;5.50;;;15.90;99.90;;;;;;5041126;28;20072;-74
2022/07/24 04:01:46;;;;;;;5.65;5.15;;;15.90;99.90;;;;;;5040586;28;20048;-73
2022/07/24 04:04:15;;;;;;;7.68;5.90;;;16.00;99.90;;;;;;5023058;28;20053;-74
2022/07/24 04:06:41;;;;;;;7.05;5.90;;;16.00;99.90;;;;;;5049020;28;20497;-74
2022/07/24 04:09:07;;;;;;;6.03;5.53;;;16.00;99.90;;;;;;5048066;28;20127;-74
2022/07/24 04:11:33;;;;;;;6.28;5.60;;;15.90;99.90;;;;;;5043279;28;20049;-74
2022/07/24 04:13:59;;;;;;;5.97;5.38;;;16.00;99.90;;;;;;5049050;28;20047;-74
2022/07/24 04:16:25;;;;;;;5.65;5.15;;;16.00;99.90;;;;;;5045339;28;20051;-74
2022/07/24 04:18:53;;;;;;;9.40;5.65;;;15.90;99.90;;;;;;5041857;28;20041;-74
2022/07/24 04:21:19;;;;;;;6.70;6.10;;;16.00;99.90;;;;;;5052260;28;20076;-75
2022/07/24 04:23:47;;;;;;;5.88;5.40;;;16.00;99.90;;;;;;5043672;28;20150;-73
2022/07/24 04:26:13;;;;;;;6.22;5.63;;;16.00;99.90;;;;;;5049764;28;20408;-73
2022/07/24 04:28:39;;;;;;;6.57;5.38;;;16.00;99.90;;;;;;5048540;28;20037;-73
2022/07/24 04:31:07;;;;;;;5.47;4.97;;;16.10;99.90;;;;;;5030650;28;20507;-73
2022/07/24 04:33:33;;;;;;;6.13;5.03;;;16.00;99.90;;;;;;5041786;28;20051;-74
2022/07/24 04:35:59;;;;;;;7.28;5.28;;;16.00;99.90;;;;;;5041632;28;20048;-73
2022/07/24 04:38:25;;;;;;;9.05;6.03;;;16.00;99.90;;;;;;5046684;28;20048;-73
2022/07/24 04:40:53;;;;;;;5.80;5.10;;;16.00;99.90;;;;;;5031416;28;20155;-73
2022/07/24 04:43:19;;;;;;;5.50;5.03;;;16.00;99.90;;;;;;5038527;28;20409;-72
2022/07/24 04:45:48;;;;;;;5.53;5.10;;;16.10;99.90;;;;;;5040637;28;20037;-73
2022/07/24 04:48:16;;;;;;;5.75;5.20;;;16.00;99.90;;;;;;5043035;28;20041;-72
2022/07/24 04:50:42;;;;;;;6.47;5.60;;;16.10;99.90;;;;;;5047898;28;20048;-72
2022/07/24 04:53:08;;;;;;;6.35;5.53;;;17.30;99.90;;;;;;5034840;28;20056;-74
2022/07/24 04:55:33;;;;;;;6.22;5.50;;;16.90;99.90;;;;;;5040053;28;20037;-74
2022/07/24 04:57:59;;;;;;;6.03;5.53;;;16.10;99.90;;;;;;5045799;28;20147;-73
2022/07/24 05:00:26;;;;;;;6.35;5.72;;;16.10;99.90;;;;;;5041685;28;20114;-74
2022/07/24 05:02:52;;;;;;;6.13;5.22;;;16.10;99.90;;;;;;5044472;28;20087;-74
2022/07/24 05:05:17;;;;;;;13.40;9.55;;;16.10;99.90;;;;;;5039955;28;20482;-74
2022/07/24 05:07:43;;;;;;;14.85;11.63;;;16.10;99.90;;;;;;5040166;28;20143;-74
2022/07/24 05:10:09;;;;;;;7.88;6.85;;;16.20;99.90;;;;;;5037445;28;20088;-73
2022/07/24 05:12:34;;;;;;;6.63;6.13;;;16.40;99.90;;;;;;5043697;28;20055;-73
2022/07/24 05:15:07;;;;;;;6.53;6.05;;;16.20;99.90;;;;;;5040659;28;20041;-76
2022/07/24 05:17:36;;;;;;;6.93;6.22;;;16.20;99.90;;;;;;5042785;28;20049;-76
2022/07/24 05:20:04;;;;;;;6.95;6.35;;;16.20;99.90;;;;;;5048356;28;20443;-77
2022/07/24 05:22:29;;;;;;;7.18;6.50;;;16.20;99.90;;;;;;5042665;28;20040;-77
2022/07/24 05:24:55;;;;;;;6.78;6.18;;;16.20;99.90;;;;;;5024472;28;20053;-77
2022/07/24 05:27:24;;;;;;;6.75;6.07;;;16.30;99.90;;;;;;5040606;28;20047;-76
2022/07/24 05:29:52;;;;;;;7.68;6.95;;;16.30;99.90;;;;;;5048737;28;20124;-77
2022/07/24 05:32:18;;;;;;;8.35;6.72;;;16.40;99.90;;;;;;5046681;28;20064;-76
2022/07/24 05:34:46;;;;;;;6.65;6.05;;;16.40;99.90;;;;;;5011737;28;20045;-77
2022/07/24 05:37:12;;;;;;;7.47;6.20;;;16.40;99.90;;;;;;5030579;28;20088;-75
2022/07/24 05:39:38;;;;;;;7.03;6.32;;;16.80;99.90;;;;;;5042695;28;20073;-77
2022/07/24 05:42:03;;;;;;;8.77;7.30;;;16.50;99.90;;;;;;5042956;28;20084;-75
2022/07/24 05:44:29;;;;;;;7.82;6.70;;;16.50;99.90;;;;;;5045118;28;20045;-75
2022/07/24 05:46:55;;;;;;;8.60;6.80;;;16.50;99.90;;;;;;5039377;28;20040;-76
2022/07/24 05:49:21;;;;;;;7.50;6.63;;;16.50;99.90;;;;;;5040553;28;20040;-77
2022/07/24 05:51:46;;;;;;;8.23;7.45;;;16.50;99.90;;;;;;5024062;28;20099;-77
2022/07/24 05:54:12;;;;;;;7.60;6.85;;;16.60;99.90;;;;;;5040933;28;20053;-77
2022/07/24 05:56:38;;;;;;;7.45;6.38;;;16.60;99.90;;;;;;5044829;28;20091;-77
2022/07/24 05:59:03;;;;;;;9.20;7.10;;;16.60;99.90;;;;;;5048110;28;20052;-78
2022/07/24 06:01:29;;;;;;;8.18;7.28;;;16.70;99.90;;;;;;5014571;28;20076;-77
2022/07/24 06:03:54;;;;;;;10.43;7.63;;;16.70;99.90;;;;;;5045493;28;20033;-76
2022/07/24 06:06:23;;;;;;;7.88;7.18;;;16.80;99.90;;;;;;5039291;28;20865;-76
2022/07/24 06:08:49;;;;;;;8.48;7.30;;;16.80;99.90;;;;;;5042136;28;20041;-76
2022/07/24 06:11:17;;;;;;;8.90;7.78;;;16.90;99.90;;;;;;5043587;28;20446;-76
2022/07/24 06:13:43;;;;;;;9.13;8.18;;;16.60;99.90;;;;;;5034809;28;20159;-78
2022/07/24 06:16:08;;;;;;;10.23;8.32;;;17.00;99.90;;;;;;5044989;28;20112;-73
2022/07/24 06:18:34;;;;;;;9.88;8.00;;;17.00;99.90;;;;;;5028678;28;20075;-74
2022/07/24 06:21:00;;;;;;;11.07;8.55;;;17.10;99.90;;;;;;5040333;28;20488;-73
2022/07/24 06:23:26;;;;;;;10.25;8.30;;;17.10;99.90;;;;;;4346341;28;10000668;-75
2022/07/24 06:25:52;;;;;;;9.27;8.32;;;17.20;99.90;;;;;;5037456;28;20041;-77
2022/07/24 06:28:17;;;;;;;11.57;8.38;;;17.40;99.90;;;;;;5026532;28;20172;-74
2022/07/24 06:30:43;;;;;;;12.40;8.90;;;17.30;99.90;;;;;;5038403;28;20048;-75
2022/07/24 06:33:09;;;;;;;10.65;8.77;;;17.40;99.90;;;;;;5040885;28;20040;-75
2022/07/24 06:35:34;;;;;;;9.75;8.82;;;17.50;99.90;;;;;;5019785;28;20052;-74
2022/07/24 06:38:00;;;;;;;11.27;10.15;;;17.50;99.90;;;;;;5047532;28;20082;-73
2022/07/24 06:40:26;;;;;;;14.13;12.38;;;18.00;99.90;;;;;;5036169;28;20037;-75
2022/07/24 06:42:52;;;;;;;11.73;10.52;;;17.60;99.90;;;;;;5024061;28;20037;-75
2022/07/24 06:45:17;;;;;;;15.65;10.57;;;17.70;99.90;;;;;;5044035;28;20071;-75
2022/07/24 06:47:46;;;;;;;13.25;10.65;;;18.00;99.90;;;;;;5031504;28;20029;-73
2022/07/24 06:50:16;;;;;;;14.32;10.73;;;18.20;99.90;;;;;;5022696;28;20068;-75
2022/07/24 06:52:42;;;;;;;11.65;9.73;;;18.30;99.90;;;;;;5018161;28;20134;-76
2022/07/24 06:55:08;;;;;;;15.07;10.20;;;18.80;99.90;;;;;;5040060;28;20071;-74
2022/07/24 06:57:34;;;;;;;14.82;11.02;;;18.10;99.90;;;;;;5022645;28;20144;-74
2022/07/24 07:00:00;;;;;;;11.40;10.27;;;18.10;99.90;;;;;;5040874;28;20564;-74
2022/07/24 07:02:25;;;;;;;13.27;10.90;;;18.40;99.90;;;;;;5040250;28;20477;-75
2022/07/24 07:04:51;;;;;;;15.93;10.10;;;18.30;99.90;;;;;;5043081;28;20139;-75
2022/07/24 07:07:18;;;;;;;12.85;11.10;;;18.70;99.90;;;;;;5022543;28;20068;-74
2022/07/24 07:09:47;;;;;;;21.08;10.32;;;18.50;99.90;;;;;;5043756;28;20041;-76
2022/07/24 07:12:13;;;;;;;10.50;9.35;;;18.60;99.90;;;;;;5042045;28;20052;-76
2022/07/24 07:14:38;;;;;;;12.75;10.05;;;18.70;99.90;;;;;;5040887;28;20511;-74
2022/07/24 07:17:04;;;;;;;12.18;9.23;;;18.80;99.90;;;;;;5041596;28;20117;-75
2022/07/24 07:19:30;;;;;;;10.70;9.02;;;18.90;99.90;;;;;;5024766;28;20040;-76
2022/07/24 07:21:57;;;;;;;11.10;8.57;;;19.00;99.90;;;;;;5047667;28;20033;-76
2022/07/24 07:24:23;;;;;;;9.82;8.00;;;19.10;99.90;;;;;;5027312;28;20045;-76
2022/07/24 07:26:49;;;;;;;14.88;7.43;;;19.20;99.90;;;;;;5030215;28;20167;-76
2022/07/24 07:29:15;;;;;;;8.45;7.43;;;19.60;99.90;;;;;;5025710;28;20052;-76
2022/07/24 07:31:40;;;;;;;9.93;6.60;;;19.50;99.90;;;;;;5043717;28;20485;-76
2022/07/24 07:34:06;;;;;;;6.00;5.40;;;19.60;99.90;;;;;;5030264;28;20354;-76
2022/07/24 07:36:32;;;;;;;8.80;5.32;;;20.00;99.90;;;;;;5051004;28;20041;-76
2022/07/24 07:38:57;;;;;;;6.35;5.20;;;19.70;99.90;;;;;;5050175;28;20060;-76
2022/07/24 07:41:24;;;;;;;5.32;4.90;;;19.80;99.90;;;;;;5045538;28;20570;-76
2022/07/24 07:43:52;;;;;;;9.23;5.15;;;19.80;99.90;;;;;;5046176;28;20052;-77
2022/07/24 07:46:18;;;;;;;9.15;4.97;;;19.80;99.90;;;;;;5042705;28;20033;-75
2022/07/24 07:48:52;;;;;;;6.70;5.28;;;19.90;99.90;;;;;;5044769;28;20524;-74
2022/07/24 07:51:18;;;;;;;7.70;4.57;;;19.90;99.90;;;;;;5048481;28;20037;-74
2022/07/24 07:53:46;;;;;;;5.05;4.32;;;19.90;99.90;;;;;;4701623;28;9999857;-76
2022/07/24 07:56:18;;;;;;;11.25;4.93;;;20.00;99.90;;;;;;5048559;28;20182;-75
2022/07/24 07:58:47;;;;;;;6.05;4.97;;;20.00;99.90;;;;;;5020006;28;20132;-74
2022/07/24 08:01:13;;;;;;;6.15;5.30;;;20.30;99.90;;;;;;5024274;28;20049;-74
2022/07/24 08:03:45;;;;;;;5.80;5.30;;;20.20;99.90;;;;;;5001035;28;20045;-74
2022/07/24 08:06:10;;;;;;;6.70;4.78;;;20.30;99.90;;;;;;5024077;28;20041;-75
2022/07/24 08:08:36;;;;;;;6.55;4.43;;;20.30;99.90;;;;;;5018459;28;20042;-75
2022/07/24 08:11:02;;;;;;;6.55;4.70;;;20.40;99.90;;;;;;5019568;28;20041;-75
2022/07/24 08:13:27;;;;;;;4.90;4.30;;;20.50;99.90;;;;;;5020597;28;20052;-73
2022/07/24 08:15:53;;;;;;;8.65;5.00;;;21.10;99.90;;;;;;5019187;28;20041;-73
2022/07/24 08:18:19;;;;;;;5.93;5.05;;;20.70;99.90;;;;;;5022825;28;20053;-72
2022/07/24 08:20:49;;;;;;;4.90;4.47;;;20.70;99.90;;;;;;5026296;28;20044;-74
2022/07/24 08:23:15;;;;;;;6.80;3.90;;;20.80;99.90;;;;;;5023804;28;20049;-72
2022/07/24 08:25:41;;;;;;;4.35;3.97;;;20.90;99.90;;;;;;5026521;28;20112;-72
2022/07/24 08:28:07;;;;;;;6.03;3.97;;;21.00;99.90;;;;;;5022692;28;20053;-73
2022/07/24 08:30:32;;;;;;;6.50;4.70;;;21.10;99.90;;;;;;5022281;28;20046;-73
2022/07/24 08:32:58;;;;;;;4.50;4.10;;;21.60;99.90;;;;;;5022568;28;20045;-74
2022/07/24 08:35:24;;;;;;;5.18;3.63;;;21.20;99.90;;;;;;5021860;28;20050;-73
2022/07/24 08:37:53;;;;;;;4.15;3.60;;;21.20;99.90;;;;;;4681166;28;10000660;-73
2022/07/24 08:40:18;;;;;;;5.70;3.70;;;21.30;99.90;;;;;;5021613;28;20045;-75
2022/07/24 08:42:45;;;;;;;10.82;3.22;;;21.30;99.90;;;;;;5028967;28;20903;-75
2022/07/24 08:45:11;;;;;;;5.80;4.53;;;21.30;99.90;;;;;;5018959;28;20050;-72
2022/07/24 08:47:39;;;;;;;4.60;3.60;;;21.40;99.90;;;;;;5024570;28;20037;-72
2022/07/24 08:50:06;;;;;;;3.45;3.15;;;21.40;99.90;;;;;;5020040;28;20050;-73
2022/07/24 08:52:35;;;;;;;6.30;3.50;;;21.40;99.90;;;;;;5031367;28;20041;-73
2022/07/24 08:55:01;;;;;;;7.90;5.30;;;21.50;99.90;;;;;;5004132;28;20049;-74
2022/07/24 08:57:27;;;;;;;3.42;3.15;;;21.60;99.90;;;;;;5022864;28;20447;-75
2022/07/24 08:59:52;;;;;;;6.85;3.45;;;21.80;99.90;;;;;;5051365;28;20033;-75
2022/07/24 09:02:18;;;;;;;4.35;3.90;;;21.90;99.90;;;;;;5036780;28;20516;-75
2022/07/24 09:04:48;;;;;;;7.05;3.67;;;22.30;99.90;;;;;;5045675;28;20507;-76
2022/07/24 09:07:18;;;;;;;3.95;3.05;;;22.10;99.90;;;;;;5038043;28;20042;-75
2022/07/24 09:09:57;;;;;;;4.15;3.72;;;22.10;99.90;;;;;;5042520;28;20121;-76
2022/07/24 09:12:23;;;;;;;6.65;3.83;;;22.10;99.90;;;;;;5043376;28;20047;-76
2022/07/24 09:14:48;;;;;;;8.32;3.95;;;22.20;99.90;;;;;;5045552;28;20116;-78
2022/07/24 09:17:23;;;;;;;5.75;3.92;;;22.20;99.90;;;;;;5046689;28;20047;-79
2022/07/24 09:20:00;;;;;;;4.38;3.97;;;22.20;99.90;;;;;;5043919;28;20049;-76
2022/07/24 09:22:34;;;;;;;5.97;4.22;;;22.20;99.90;;;;;;5049670;28;20091;-76
2022/07/24 09:25:10;;;;;;;;;;;22.20;99.90;;;;;;5044231;28;20049;-78
2022/07/24 09:27:47;;;;;;;5.20;2.50;;;22.20;99.90;;;;;;5040815;28;19952;-77
2022/07/24 09:30:31;;;;;;;3.50;3.20;;;22.30;99.90;;;;;;5022660;28;20049;-78
2022/07/24 09:33:01;;;;;;;2.75;2.33;;;22.50;99.90;;;;;;5047302;28;20041;-78
2022/07/24 09:35:49;;;;;;;5.35;3.90;;;22.70;99.90;;;;;;5043163;28;20111;-74
2022/07/24 09:38:18;;;;;;;9.60;3.75;;;22.80;99.90;;;;;;5046695;28;20195;-76
2022/07/24 09:40:53;;;;;;;8.55;3.78;;;23.20;99.90;;;;;;5042302;28;20392;-78
2022/07/24 09:43:24;;;;;;;33.22;10.30;;;23.00;99.90;;;;;;5042486;28;20041;-76
2022/07/24 09:46:06;;;;;;;42.47;11.70;;;23.10;99.90;;;;;;5026734;28;20050;-78
2022/07/24 09:48:53;;;;;;;18.02;6.75;;;23.20;99.90;;;;;;5040296;28;20107;-79
2022/07/24 09:51:19;;;;;;;6.13;3.42;;;23.30;99.90;;;;;;5044426;28;20078;-79
2022/07/24 09:53:54;;;;;;;32.92;9.85;;;23.40;99.90;;;;;;5039468;28;20475;-77
2022/07/24 09:56:23;;;;;;;31.58;10.48;;;23.40;99.90;;;;;;5043312;28;20070;-77
2022/07/24 09:58:53;;;;;;;26.48;8.55;;;23.40;99.90;;;;;;5040967;28;20053;-79
2022/07/24 10:01:22;;;;;;;26.65;10.05;;;23.50;99.90;;;;;;5047182;28;20063;-78
2022/07/24 10:03:49;;;;;;;18.42;7.32;;;23.60;99.90;;;;;;5044335;28;20523;-77
2022/07/24 10:06:25;;;;;;;6.57;3.35;;;23.60;99.90;;;;;;5039800;28;20041;-79
2022/07/24 10:08:53;;;;;;;4.57;3.15;;;23.60;99.90;;;;;;5042937;28;20079;-78
2022/07/24 10:11:19;;;;;;;9.73;7.40;;;23.60;99.90;;;;;;5042725;28;20102;-79
2022/07/24 10:13:49;;;;;;;7.00;2.45;;;23.60;99.90;;;;;;5038347;28;20103;-72
2022/07/24 10:16:23;;;;;;;5.68;4.10;;;23.70;99.90;;;;;;5047706;28;20049;-76
2022/07/24 10:18:59;;;;;;;21.70;8.65;;;23.60;99.90;;;;;;5047790;28;20049;-74
2022/07/24 10:21:31;;;;;;;10.77;4.70;;;23.80;99.90;;;;;;4681564;28;10000288;-76
2022/07/24 10:24:36;;;;;;;57.88;17.75;;;24.40;99.90;;;;;;5043175;28;20040;-74
2022/07/24 10:27:04;;;;;;;9.82;4.75;;;23.70;99.90;;;;;;5027351;28;20071;-72
2022/07/24 10:29:33;;;;;;;22.27;8.43;;;23.70;99.90;;;;;;5047436;28;20043;-75
2022/07/24 10:31:59;;;;;;;6.00;3.55;;;23.60;99.90;;;;;;5044547;28;20127;-73
2022/07/24 10:34:34;;;;;;;37.85;12.43;;;24.60;99.90;;;;;;5047194;28;20611;-74
2022/07/24 10:37:28;;;;;;;21.35;5.57;;;23.80;99.90;;;;;;5046945;28;21544;-75
2022/07/24 10:40:23;;;;;;;6.25;2.80;;;23.90;99.90;;;;;;5046323;28;20044;-76
2022/07/24 10:43:10;;;;;;;14.85;6.30;;;24.00;99.90;;;;;;5042469;28;20037;-78
2022/07/24 10:45:46;;;;;;;17.60;5.07;;;24.00;99.90;;;;;;5046837;28;20043;-75
2022/07/24 10:48:24;;;;;;;14.38;6.38;;;24.00;99.90;;;;;;5044107;28;20073;-77
2022/07/24 10:51:03;;;;;;;54.95;10.75;;;24.00;99.90;;;;;;5043509;28;20832;-72
2022/07/24 10:53:40;;;;;;;5.47;2.63;;;24.00;99.90;;;;;;5045698;28;20041;-74
2022/07/24 10:56:26;;;;;;;11.00;5.97;;;24.10;99.90;;;;;;5020854;28;20037;-79
2022/07/24 10:59:07;;;;;;;12.82;4.82;;;24.10;99.90;;;;;;5046456;28;20049;-77
2022/07/24 11:01:51;;;;;;;9.43;4.80;;;24.10;99.90;;;;;;5046058;28;20480;-76
2022/07/24 11:04:24;;;;;;;21.63;10.27;;;24.10;99.90;;;;;;5025059;28;20049;-73
2022/07/24 11:06:53;;;;;;;23.13;10.48;;;24.10;99.90;;;;;;5014531;28;20072;-73
2022/07/24 11:09:21;;;;;;;32.20;13.57;;;24.30;99.90;;;;;;5048219;28;20045;-75
2022/07/24 11:11:53;;;;;;;44.15;13.88;;;24.30;99.90;;;;;;5051912;28;20251;-78
2022/07/24 11:14:45;;;;;;;48.50;15.00;;;24.50;99.90;;;;;;5035435;28;20539;-78
2022/07/24 11:17:38;;;;;;;28.95;8.13;;;24.60;99.90;;;;;;5047336;28;20120;-81
2022/07/24 11:20:06;;;;;;;19.35;7.53;;;24.70;99.90;;;;;;5035042;28;20407;-82
2022/07/24 11:22:42;;;;;;;18.60;9.68;;;24.80;99.90;;;;;;5049890;28;20048;-78
2022/07/24 11:25:15;;;;;;;6.57;3.08;;;24.90;99.90;;;;;;5046020;28;20041;-76
2022/07/24 11:27:58;;;;;;;7.47;4.43;;;25.10;99.90;;;;;;5031893;28;20162;-80
2022/07/24 11:30:29;;;;;;;9.80;6.18;;;25.20;99.90;;;;;;5050556;28;20076;-77
2022/07/24 11:32:56;;;;;;;3.80;1.85;;;25.30;99.90;;;;;;5051072;28;20051;-79
2022/07/24 11:35:31;;;;;;;3.97;2.30;;;25.40;99.90;;;;;;5048113;28;20037;-76
2022/07/24 11:37:59;;;;;;;2.47;1.92;;;25.40;99.90;;;;;;5033626;28;20558;-77
2022/07/24 11:40:25;;;;;;;4.78;1.95;;;25.40;99.90;;;;;;5051401;28;20044;-80
2022/07/24 11:43:02;;;;;;;5.03;1.70;;;25.60;99.90;;;;;;5050694;28;20037;-79
2022/07/24 11:45:28;;;;;;;14.38;2.53;;;25.70;99.90;;;;;;5050745;28;20068;-72
2022/07/24 11:47:57;;;;;;;5.40;2.50;;;25.70;99.90;;;;;;5049919;28;20060;-78
2022/07/24 11:50:25;;;;;;;7.78;3.97;;;25.70;99.90;;;;;;5041289;28;20049;-77
2022/07/24 11:52:54;;;;;;;2.03;1.90;;;25.80;99.90;;;;;;5043276;28;20176;-80
2022/07/24 11:55:26;;;;;;;5.47;1.90;;;25.90;99.90;;;;;;5045832;28;20410;-78
2022/07/24 11:57:58;;;;;;;10.93;2.60;;;25.90;99.90;;;;;;5030973;28;20092;-71
2022/07/24 12:00:28;;;;;;;5.55;2.25;;;25.90;99.90;;;;;;5042468;28;20114;-78
2022/07/24 12:02:57;;;;;;;2.72;1.65;;;25.90;99.90;;;;;;5039497;28;20083;-81
2022/07/24 12:05:41;;;;;;;8.73;2.45;;;26.10;99.90;;;;;;5045307;28;20053;-81
2022/07/24 12:08:17;;;;;;;;;;;26.10;99.90;;;;;;5045850;28;20065;-78
2022/07/24 12:10:49;;;;;;;5.03;2.33;;;26.20;98.70;;;;;;5012614;28;20379;-77
2022/07/24 12:13:17;;;;;;;4.05;1.40;;;26.30;98.60;;;;;;5052390;28;20059;-79
2022/07/24 12:15:43;;;;;;;4.78;2.03;;;26.30;98.10;;;;;;5044673;28;20095;-76
2022/07/24 12:18:10;;;;;;;3.45;1.85;;;26.40;98.80;;;;;;5040895;28;20030;-79
2022/07/24 12:20:40;;;;;;;2.95;1.40;;;26.50;98.20;;;;;;5042904;28;20180;-82
2022/07/24 12:23:18;;;;;;;4.45;1.48;;;27.20;97.50;;;;;;5046786;28;20040;-80
2022/07/24 12:25:47;;;;;;;1.73;1.55;;;26.60;97.50;;;;;;5050642;28;20109;-79
2022/07/24 12:28:18;;;;;;;3.97;1.55;;;26.60;97.80;;;;;;5049612;28;20041;-77
2022/07/24 12:31:09;;;;;;;3.53;1.90;;;26.70;97.20;;;;;;5050353;28;20557;-76
2022/07/24 12:33:36;;;;;;;3.42;1.85;;;26.80;97.70;;;;;;5045623;28;20049;-77
2022/07/24 12:36:10;;;;;;;2.10;1.50;;;26.90;97.70;;;;;;5026760;28;20088;-76
2022/07/24 12:38:49;;;;;;;3.67;2.03;;;27.00;97.30;;;;;;5030178;28;20049;-77
2022/07/24 12:41:17;;;;;;;1.88;1.70;;;26.90;96.30;;;;;;5039221;28;20045;-76
2022/07/24 12:43:54;;;;;;;1.52;1.42;;;26.80;96.10;;;;;;5042753;28;20049;-77
2022/07/24 12:46:28;;;;;;;4.70;1.70;;;26.60;96.40;;;;;;5040693;28;20128;-78
2022/07/24 12:49:23;;;;;;;2.53;1.73;;;26.60;96.40;;;;;;5043814;28;20041;-76
2022/07/24 12:51:48;;;;;;;;;;;26.70;96.70;;;;;;5041912;28;20223;-77
2022/07/24 12:54:45;;;;;;;1.60;1.50;;;26.70;96.20;;;;;;5039872;28;19971;-77